createdAt,value
2024-02-19T00:00:06.818Z,7.20
2024-02-19T00:02:45.061Z,7.57
2024-02-19T00:05:16.830Z,7.68
2024-02-19T00:07:48.733Z,7.65
2024-02-19T00:10:20.715Z,7.63
2024-02-19T00:12:52.838Z,6.95
2024-02-19T00:15:24.611Z,6.75
2024-02-19T00:17:56.458Z,6.95
2024-02-19T00:20:31.201Z,6.82
2024-02-19T00:25:35.066Z,6.55
2024-02-19T00:28:06.965Z,7.13
2024-02-19T00:30:39.699Z,7.00
2024-02-19T00:33:11.677Z,6.95
2024-02-19T00:35:43.430Z,7.28
2024-02-19T00:38:15.121Z,7.20
2024-02-19T00:40:48.081Z,6.47
2024-02-19T00:43:19.806Z,7.25
2024-02-19T00:45:52.850Z,7.25
2024-02-19T00:48:27.532Z,7.25
2024-02-19T00:50:59.435Z,7.55
2024-02-19T00:53:31.164Z,6.82
2024-02-19T00:56:02.971Z,7.28
2024-02-19T00:58:35.201Z,7.13
2024-02-19T01:01:09.807Z,7.00
2024-02-19T01:03:45.295Z,6.38
2024-02-19T01:06:17.180Z,6.60
2024-02-19T01:08:51.762Z,6.32
2024-02-19T01:11:23.536Z,6.50
2024-02-19T01:13:55.294Z,6.57
2024-02-19T01:16:27.102Z,6.75
2024-02-19T01:18:58.978Z,6.15
2024-02-19T01:21:33.338Z,6.38
2024-02-19T01:24:05.037Z,6.55
2024-02-19T01:26:37.101Z,6.22
2024-02-19T01:29:08.841Z,6.50
2024-02-19T01:31:40.566Z,6.95
2024-02-19T01:34:15.748Z,6.43
2024-02-19T01:36:47.799Z,6.00
2024-02-19T01:39:21.864Z,6.60
2024-02-19T01:41:53.533Z,6.15
2024-02-19T01:44:25.722Z,6.43
2024-02-19T01:46:58.817Z,6.35
2024-02-19T01:49:30.731Z,6.15
2024-02-19T01:52:02.838Z,5.60
2024-02-19T01:54:35.689Z,6.22
2024-02-19T01:57:08.205Z,5.88
2024-02-19T01:59:44.680Z,7.22
2024-02-19T02:02:17.989Z,6.30
2024-02-19T02:04:51.497Z,6.15
2024-02-19T02:07:23.989Z,6.40
2024-02-19T02:09:56.173Z,6.13
2024-02-19T02:12:28.133Z,5.50
2024-02-19T02:14:59.888Z,5.70
2024-02-19T02:17:34.585Z,6.13
2024-02-19T02:22:39.804Z,5.93
2024-02-19T02:25:11.581Z,5.40
2024-02-19T02:27:43.347Z,5.47
2024-02-19T02:30:15.517Z,5.43
2024-02-19T02:32:47.315Z,5.15
2024-02-19T02:35:19.077Z,5.05
2024-02-19T02:37:51.980Z,5.18
2024-02-19T02:40:23.776Z,5.22
2024-02-19T02:42:55.742Z,4.72
2024-02-19T02:45:27.487Z,4.72
2024-02-19T02:47:59.460Z,5.50
2024-02-19T02:50:31.250Z,4.60
2024-02-19T02:53:03.008Z,4.80
2024-02-19T02:55:35.943Z,4.45
2024-02-19T02:58:07.694Z,4.28
2024-02-19T03:00:39.920Z,4.55
2024-02-19T03:03:12.258Z,4.28
2024-02-19T03:05:43.991Z,3.92
2024-02-19T03:08:15.752Z,4.40
2024-02-19T03:10:47.523Z,3.90
2024-02-19T03:13:19.386Z,3.75
2024-02-19T03:15:51.435Z,3.63
2024-02-19T03:18:25.637Z,4.20
2024-02-19T03:20:57.749Z,3.30
2024-02-19T03:23:29.566Z,2.90
2024-02-19T03:26:01.242Z,2.80
2024-02-19T03:28:34.444Z,2.67
2024-02-19T03:31:06.216Z,2.83
2024-02-19T03:33:39.946Z,2.42
2024-02-19T03:36:12.326Z,2.20
2024-02-19T03:38:44.118Z,2.72
2024-02-19T03:41:15.849Z,2.40
2024-02-19T03:43:50.563Z,2.08
2024-02-19T03:48:58.132Z,2.33
2024-02-19T03:51:29.999Z,2.10
2024-02-19T03:54:01.774Z,2.47
2024-02-19T03:56:33.545Z,2.10
2024-02-19T03:59:06.219Z,2.03
2024-02-19T04:01:38.983Z,2.10
2024-02-19T04:04:11.019Z,2.75
2024-02-19T04:06:43.460Z,2.20
2024-02-19T04:09:15.378Z,1.70
2024-02-19T04:11:47.121Z,1.80
2024-02-19T04:14:18.838Z,2.00
2024-02-19T04:16:50.549Z,1.85
2024-02-19T04:19:22.403Z,1.80
2024-02-19T04:21:54.162Z,1.90
2024-02-19T04:24:25.922Z,1.90
2024-02-19T04:26:57.702Z,1.90
2024-02-19T04:29:29.445Z,1.50
2024-02-19T04:32:01.166Z,1.30
2024-02-19T04:34:38.316Z,1.50
2024-02-19T04:37:13.296Z,1.38
2024-02-19T04:39:45.149Z,1.17
2024-02-19T04:42:17.642Z,1.20
2024-02-19T04:44:49.330Z,1.33
2024-02-19T04:47:21.433Z,1.40
2024-02-19T04:49:53.390Z,1.20
2024-02-19T04:54:59.777Z,1.15
2024-02-19T04:57:31.637Z,1.23
2024-02-19T05:00:04.388Z,1.20
2024-02-19T05:02:36.213Z,1.40
2024-02-19T05:05:09.909Z,1.23
2024-02-19T05:07:41.686Z,1.10
2024-02-19T05:10:14.371Z,1.20
2024-02-19T05:12:46.149Z,1.10
2024-02-19T05:15:17.861Z,1.10
2024-02-19T05:17:49.638Z,1.20
2024-02-19T05:20:21.547Z,1.10
2024-02-19T05:22:53.251Z,1.20
2024-02-19T05:25:25.180Z,1.15
2024-02-19T05:27:59.438Z,1.10
2024-02-19T05:30:31.458Z,1.10
2024-02-19T05:33:03.748Z,1.05
2024-02-19T05:35:35.549Z,1.00
2024-02-19T05:38:07.274Z,0.90
2024-02-19T05:40:42.623Z,0.90
2024-02-19T05:43:14.917Z,0.85
2024-02-19T05:45:46.747Z,1.23
2024-02-19T05:48:22.668Z,1.08
2024-02-19T05:50:55.885Z,1.17
2024-02-19T05:53:27.764Z,0.90
2024-02-19T05:55:59.459Z,0.80
2024-02-19T05:58:34.134Z,0.85
2024-02-19T06:03:37.758Z,0.70
2024-02-19T06:06:09.619Z,0.73
2024-02-19T06:08:41.392Z,0.77
2024-02-19T06:11:13.090Z,1.10
2024-02-19T06:13:46.045Z,0.90
2024-02-19T06:16:18.133Z,1.20
2024-02-19T06:18:50.279Z,0.85
2024-02-19T06:21:22.139Z,0.70
2024-02-19T06:23:53.801Z,1.05
2024-02-19T06:26:25.547Z,0.80
2024-02-19T06:28:57.323Z,0.77
2024-02-19T06:31:29.342Z,1.17
2024-02-19T06:34:04.468Z,0.90
2024-02-19T06:36:36.417Z,0.95
2024-02-19T06:39:08.673Z,0.80
2024-02-19T06:41:40.381Z,0.80
2024-02-19T06:44:12.176Z,0.90
2024-02-19T06:46:43.960Z,0.80
2024-02-19T06:49:16.075Z,0.80
2024-02-19T06:51:47.898Z,0.90
2024-02-19T06:54:19.679Z,0.80
2024-02-19T06:56:51.426Z,0.90
2024-02-19T06:59:23.168Z,0.70
2024-02-19T07:01:54.988Z,0.88
2024-02-19T07:04:26.747Z,0.90
2024-02-19T07:06:58.517Z,0.70
2024-02-19T07:09:30.225Z,0.85
2024-02-19T07:12:02.017Z,0.60
2024-02-19T07:14:33.816Z,1.00
2024-02-19T07:17:05.609Z,0.63
2024-02-19T07:19:37.448Z,0.80
2024-02-19T07:22:09.253Z,0.90
2024-02-19T07:24:42.380Z,0.63
2024-02-19T07:27:14.085Z,0.70
2024-02-19T07:29:45.821Z,0.80
2024-02-19T07:32:17.574Z,0.60
2024-02-19T07:34:49.496Z,0.45
2024-02-19T07:37:21.544Z,0.75
2024-02-19T07:39:53.478Z,0.90
2024-02-19T07:42:25.369Z,0.85
2024-02-19T07:44:57.239Z,0.75
2024-02-19T07:47:28.980Z,0.50
2024-02-19T07:50:04.102Z,0.55
2024-02-19T07:52:36.069Z,0.73
2024-02-19T07:55:08.214Z,0.88
2024-02-19T07:57:40.112Z,0.57
2024-02-19T08:00:13.465Z,0.90
2024-02-19T08:02:50.888Z,0.70
2024-02-19T08:05:22.677Z,0.70
2024-02-19T08:07:54.644Z,0.63
2024-02-19T08:10:26.455Z,0.88
2024-02-19T08:12:58.401Z,0.80
2024-02-19T08:15:30.366Z,0.63
2024-02-19T08:18:02.167Z,0.80
2024-02-19T08:20:34.554Z,0.88
2024-02-19T08:23:06.375Z,0.60
2024-02-19T08:25:38.751Z,0.90
2024-02-19T08:28:13.504Z,0.55
2024-02-19T08:30:45.638Z,0.55
2024-02-19T08:33:17.506Z,0.30
2024-02-19T08:35:51.482Z,0.50
2024-02-19T08:38:26.119Z,0.50
2024-02-19T08:40:57.859Z,0.70
2024-02-19T08:43:31.177Z,0.50
2024-02-19T08:46:03.054Z,0.30
2024-02-19T08:48:37.891Z,0.55
2024-02-19T08:51:10.430Z,0.65
2024-02-19T08:53:42.219Z,0.70
2024-02-19T08:56:14.072Z,0.50
2024-02-19T08:58:45.864Z,0.60
2024-02-19T09:01:20.246Z,0.50
2024-02-19T09:03:52.235Z,0.32
2024-02-19T09:06:24.109Z,0.50
2024-02-19T09:08:55.903Z,0.70
2024-02-19T09:11:28.126Z,0.50
2024-02-19T09:14:00.195Z,0.40
2024-02-19T09:16:35.575Z,0.65
2024-02-19T09:19:10.177Z,1.05
2024-02-19T09:21:44.661Z,0.57
2024-02-19T09:24:17.889Z,0.50
2024-02-19T09:26:49.611Z,0.70
2024-02-19T09:29:23.791Z,0.77
2024-02-19T09:31:55.994Z,0.45
2024-02-19T09:34:27.956Z,0.73
2024-02-19T09:37:01.087Z,0.85
2024-02-19T09:39:33.384Z,0.65
2024-02-19T09:42:14.238Z,0.50
2024-02-19T09:44:48.547Z,0.55
2024-02-19T09:47:21.334Z,0.60
2024-02-19T09:49:54.665Z,1.20
2024-02-19T09:52:30.032Z,0.60
2024-02-19T09:55:04.630Z,1.00
2024-02-19T09:57:39.342Z,0.60
2024-02-19T10:02:44.336Z,0.70
2024-02-19T10:05:16.293Z,0.70
2024-02-19T10:07:48.189Z,0.90
2024-02-19T10:10:20.233Z,0.80
2024-02-19T10:12:52.043Z,0.88
2024-02-19T10:15:23.958Z,0.80
2024-02-19T10:17:55.733Z,0.90
2024-02-19T10:20:29.371Z,0.63
2024-02-19T10:23:01.530Z,0.80
2024-02-19T10:25:33.271Z,0.70
2024-02-19T10:28:09.117Z,0.80
2024-02-19T10:30:44.589Z,0.80
2024-02-19T10:33:16.801Z,0.82
2024-02-19T10:35:50.732Z,0.70
2024-02-19T10:38:23.379Z,0.90
2024-02-19T10:40:56.056Z,0.55
2024-02-19T10:43:27.880Z,0.60
2024-02-19T10:46:00.341Z,0.60
2024-02-19T10:48:33.539Z,0.65
2024-02-19T10:51:06.010Z,0.65
2024-02-19T10:53:37.899Z,0.70
2024-02-19T10:56:21.788Z,0.70
2024-02-19T10:58:54.841Z,0.88
2024-02-19T11:01:48.632Z,0.80
2024-02-19T11:04:25.038Z,0.80
2024-02-19T11:06:58.716Z,0.60
2024-02-19T11:09:37.631Z,0.63
2024-02-19T11:12:15.332Z,0.70
2024-02-19T11:14:51.397Z,0.60
2024-02-19T11:17:26.576Z,1.10
2024-02-19T11:20:00.487Z,0.65
2024-02-19T11:22:33.440Z,0.50
2024-02-19T11:25:05.460Z,0.60
2024-02-19T11:27:37.320Z,0.60
2024-02-19T11:30:13.727Z,0.43
2024-02-19T11:32:46.110Z,0.60
2024-02-19T11:35:17.994Z,0.60
2024-02-19T11:37:49.936Z,0.52
2024-02-19T11:40:21.831Z,0.47
2024-02-19T11:42:53.720Z,0.30
2024-02-19T11:45:26.319Z,0.52
2024-02-19T11:48:04.017Z,0.50
2024-02-19T11:50:35.889Z,0.60
2024-02-19T11:53:09.147Z,0.70
2024-02-19T11:55:41.205Z,0.60
2024-02-19T11:58:16.235Z,0.40
2024-02-19T12:00:48.816Z,0.50
2024-02-19T12:03:27.746Z,0.50
2024-02-19T12:06:01.729Z,0.50
2024-02-19T12:08:33.691Z,0.75
2024-02-19T12:11:07.966Z,0.60
2024-02-19T12:13:42.024Z,0.60
2024-02-19T12:16:16.113Z,0.80
2024-02-19T12:18:50.240Z,0.70
2024-02-19T12:21:23.609Z,0.65
2024-02-19T12:23:55.597Z,0.55
2024-02-19T12:26:27.762Z,0.70
2024-02-19T12:28:59.488Z,0.60
2024-02-19T12:31:31.903Z,0.60
2024-02-19T12:34:03.823Z,0.50
2024-02-19T12:36:36.358Z,0.52
2024-02-19T12:39:11.442Z,0.35
2024-02-19T12:41:48.226Z,0.50
2024-02-19T12:44:20.148Z,0.50
2024-02-19T12:46:51.906Z,0.63
2024-02-19T12:49:23.782Z,0.45
2024-02-19T12:52:01.971Z,0.60
2024-02-19T12:54:33.791Z,0.60
2024-02-19T12:57:07.123Z,0.40
2024-02-19T12:59:41.997Z,0.50
2024-02-19T13:02:17.410Z,0.55
2024-02-19T13:04:50.554Z,0.50
2024-02-19T13:07:22.706Z,0.55
2024-02-19T13:09:55.792Z,0.60
2024-02-19T13:12:27.670Z,0.60
2024-02-19T13:15:00.854Z,0.98
2024-02-19T13:17:40.039Z,0.80
2024-02-19T13:20:16.693Z,0.65
2024-02-19T13:22:48.743Z,0.60
2024-02-19T13:25:21.174Z,0.90
2024-02-19T13:27:53.014Z,0.80
2024-02-19T13:30:25.011Z,0.50
2024-02-19T13:33:00.246Z,0.73
2024-02-19T13:35:32.157Z,0.60
2024-02-19T13:38:04.135Z,0.55
2024-02-19T13:40:36.554Z,0.60
2024-02-19T13:43:08.909Z,0.60
2024-02-19T13:46:04.806Z,0.88
2024-02-19T13:48:38.162Z,0.57
2024-02-19T13:51:10.132Z,0.57
2024-02-19T13:53:41.855Z,0.80
2024-02-19T13:56:16.138Z,0.95
2024-02-19T13:58:48.623Z,0.88
2024-02-19T14:01:20.807Z,0.60
2024-02-19T14:03:52.857Z,0.75
2024-02-19T14:06:24.834Z,0.90
2024-02-19T14:08:58.037Z,0.70
2024-02-19T14:11:30.975Z,0.70
2024-02-19T14:14:03.792Z,0.70
2024-02-19T14:16:36.112Z,0.70
2024-02-19T14:19:08.039Z,0.70
2024-02-19T14:21:39.804Z,0.60
2024-02-19T14:24:11.592Z,0.70
2024-02-19T14:26:44.090Z,0.70
2024-02-19T14:29:16.313Z,0.90
2024-02-19T14:31:54.216Z,0.68
2024-02-19T14:34:26.704Z,0.80
2024-02-19T14:36:58.609Z,0.70
2024-02-19T14:39:31.806Z,0.68
2024-02-19T14:42:03.698Z,0.47
2024-02-19T14:44:35.874Z,0.63
2024-02-19T14:47:07.816Z,0.90
2024-02-19T14:49:40.847Z,0.80
2024-02-19T14:52:12.877Z,0.80
2024-02-19T14:54:44.846Z,0.52
2024-02-19T14:57:17.752Z,0.52
2024-02-19T14:59:51.872Z,0.85
2024-02-19T15:02:23.709Z,0.80
2024-02-19T15:04:55.575Z,0.50
2024-02-19T15:07:27.505Z,0.40
2024-02-19T15:10:00.324Z,0.55
2024-02-19T15:12:34.314Z,0.40
2024-02-19T15:15:11.239Z,0.60
2024-02-19T15:17:43.185Z,0.55
2024-02-19T15:20:15.988Z,0.85
2024-02-19T15:22:50.369Z,0.90
2024-02-19T15:25:22.154Z,0.70
2024-02-19T15:27:54.020Z,0.68
2024-02-19T15:30:25.918Z,0.63
2024-02-19T15:32:59.445Z,0.77
2024-02-19T15:35:31.341Z,0.70
2024-02-19T15:38:03.135Z,0.63
2024-02-19T15:40:36.028Z,0.60
2024-02-19T15:43:10.465Z,0.70
2024-02-19T15:45:45.653Z,0.70
2024-02-19T15:48:17.616Z,0.77
2024-02-19T15:50:49.541Z,0.98
2024-02-19T15:53:28.221Z,0.90
2024-02-19T15:56:01.792Z,0.90
2024-02-19T15:58:37.266Z,0.93
2024-02-19T16:01:09.166Z,0.82
2024-02-19T16:03:40.931Z,0.77
2024-02-19T16:06:13.283Z,1.00
2024-02-19T16:08:45.777Z,0.93
2024-02-19T16:11:17.533Z,1.10
2024-02-19T16:13:51.365Z,0.70
2024-02-19T16:16:24.689Z,1.05
2024-02-19T16:18:58.258Z,0.70
2024-02-19T16:21:30.174Z,0.90
2024-02-19T16:24:01.969Z,0.63
2024-02-19T16:26:34.303Z,0.80
2024-02-19T16:29:06.216Z,1.00
2024-02-19T16:31:40.054Z,1.25
2024-02-19T16:34:11.982Z,0.90
2024-02-19T16:36:43.817Z,1.00
2024-02-19T16:39:15.711Z,0.65
2024-02-19T16:41:47.511Z,0.90
2024-02-19T16:44:19.708Z,0.98
2024-02-19T16:46:51.751Z,0.90
2024-02-19T16:49:26.345Z,1.13
2024-02-19T16:51:58.386Z,1.00
2024-02-19T16:54:30.224Z,0.85
2024-02-19T16:57:01.966Z,0.98
2024-02-19T16:59:33.775Z,1.08
2024-02-19T17:02:06.860Z,1.20
2024-02-19T17:04:40.775Z,1.58
2024-02-19T17:07:12.705Z,1.40
2024-02-19T17:09:44.570Z,1.10
2024-02-19T17:12:16.342Z,1.00
2024-02-19T17:14:48.587Z,0.88
2024-02-19T17:17:20.445Z,0.98
2024-02-19T17:19:52.404Z,1.10
2024-02-19T17:22:24.262Z,0.80
2024-02-19T17:24:56.183Z,1.05
2024-02-19T17:27:28.656Z,1.05
2024-02-19T17:30:00.438Z,1.10
2024-02-19T17:32:32.145Z,1.20
2024-02-19T17:35:04.928Z,1.00
2024-02-19T17:37:36.885Z,1.08
2024-02-19T17:40:12.710Z,0.90
2024-02-19T17:42:45.858Z,1.10
2024-02-19T17:45:17.863Z,1.10
2024-02-19T17:47:51.845Z,1.13
2024-02-19T17:50:23.781Z,1.30
2024-02-19T17:52:59.863Z,1.20
2024-02-19T17:55:31.832Z,1.30
2024-02-19T17:58:04.158Z,1.17
2024-02-19T18:00:36.104Z,1.35
2024-02-19T18:03:07.995Z,1.50
2024-02-19T18:05:40.532Z,1.25
2024-02-19T18:08:13.282Z,1.33
2024-02-19T18:10:45.151Z,2.40
2024-02-19T18:13:20.343Z,1.75
2024-02-19T18:15:55.981Z,1.55
2024-02-19T18:18:28.828Z,1.40
2024-02-19T18:21:00.883Z,1.75
2024-02-19T18:23:33.034Z,1.42
2024-02-19T18:26:06.871Z,1.50
2024-02-19T18:28:39.143Z,1.50
2024-02-19T18:31:12.756Z,1.40
2024-02-19T18:33:44.869Z,1.67
2024-02-19T18:36:16.811Z,2.00
2024-02-19T18:38:48.951Z,1.95
2024-02-19T18:41:21.909Z,1.60
2024-02-19T18:43:53.703Z,1.60
2024-02-19T18:46:26.556Z,2.10
2024-02-19T18:48:59.283Z,1.75
2024-02-19T18:51:31.150Z,1.92
2024-02-19T18:54:02.909Z,1.98
2024-02-19T18:56:34.855Z,1.73
2024-02-19T18:59:06.608Z,1.83
2024-02-19T19:01:38.489Z,2.10
2024-02-19T19:04:11.542Z,1.83
2024-02-19T19:06:43.761Z,2.30
2024-02-19T19:09:15.653Z,2.00
2024-02-19T19:11:47.454Z,1.73
2024-02-19T19:14:19.813Z,1.90
2024-02-19T19:16:53.002Z,1.90
2024-02-19T19:19:26.122Z,1.80
2024-02-19T19:21:59.091Z,1.52
2024-02-19T19:24:32.968Z,1.73
2024-02-19T19:27:07.623Z,1.90
2024-02-19T19:29:39.963Z,1.65
2024-02-19T19:32:17.110Z,1.65
2024-02-19T19:34:49.058Z,1.50
2024-02-19T19:37:24.785Z,1.70
2024-02-19T19:39:56.731Z,1.80
2024-02-19T19:42:28.651Z,1.70
2024-02-19T19:45:03.713Z,1.80
2024-02-19T19:47:40.987Z,1.70
2024-02-19T19:50:15.781Z,1.90
2024-02-19T19:55:38.298Z,2.05
2024-02-19T19:58:28.434Z,1.63
2024-02-19T20:01:05.520Z,2.10
2024-02-19T20:03:38.335Z,1.50
2024-02-19T20:06:11.992Z,1.85
2024-02-19T20:08:46.606Z,1.80
2024-02-19T20:11:18.337Z,2.03
2024-02-19T20:13:51.368Z,1.83
2024-02-19T20:16:24.639Z,1.70
2024-02-19T20:18:58.337Z,1.80
2024-02-19T20:21:30.278Z,2.10
2024-02-19T20:24:03.336Z,1.83
2024-02-19T20:26:38.790Z,2.08
2024-02-19T20:29:17.959Z,2.10
2024-02-19T20:31:49.659Z,1.90
2024-02-19T20:36:53.506Z,2.40
2024-02-19T20:39:26.071Z,2.10
2024-02-19T20:41:57.809Z,2.10
2024-02-19T20:44:29.539Z,1.90
2024-02-19T20:47:01.401Z,2.20
2024-02-19T20:49:33.276Z,2.30
2024-02-19T20:52:06.503Z,2.00
2024-02-19T20:54:38.420Z,1.92
2024-02-19T20:57:10.756Z,1.85
2024-02-19T20:59:42.627Z,2.47
2024-02-19T21:02:14.525Z,2.67
2024-02-19T21:04:46.376Z,2.00
2024-02-19T21:07:18.500Z,2.20
2024-02-19T21:09:50.821Z,2.20
2024-02-19T21:12:22.671Z,1.90
2024-02-19T21:14:54.590Z,1.90
2024-02-19T21:17:29.614Z,2.08
2024-02-19T21:20:01.942Z,2.35
2024-02-19T21:22:33.948Z,2.30
2024-02-19T21:25:06.332Z,2.10
2024-02-19T21:27:38.206Z,2.25
2024-02-19T21:30:10.524Z,2.15
2024-02-19T21:32:45.095Z,2.20
2024-02-19T21:35:18.570Z,2.92
2024-02-19T21:37:50.411Z,2.47
2024-02-19T21:40:22.287Z,2.60
2024-02-19T21:42:54.077Z,2.25
2024-02-19T21:45:25.941Z,2.30
2024-02-19T21:47:58.256Z,2.20
2024-02-19T21:50:32.458Z,2.65
2024-02-19T21:53:05.708Z,2.80
2024-02-19T21:55:40.456Z,2.60
2024-02-19T21:58:12.472Z,2.38
2024-02-19T22:00:44.210Z,2.80
2024-02-19T22:03:16.579Z,2.67
2024-02-19T22:05:48.523Z,2.30
2024-02-19T22:08:20.612Z,2.45
2024-02-19T22:10:52.501Z,2.40
2024-02-19T22:13:24.427Z,2.60
2024-02-19T22:15:56.341Z,2.40
2024-02-19T22:18:28.732Z,2.70
2024-02-19T22:21:00.576Z,2.50
2024-02-19T22:23:32.335Z,2.30
2024-02-19T22:26:05.402Z,2.78
2024-02-19T22:28:40.612Z,2.30
2024-02-19T22:31:12.521Z,2.78
2024-02-19T22:33:44.411Z,2.72
2024-02-19T22:36:16.247Z,2.35
2024-02-19T22:38:48.098Z,3.10
2024-02-19T22:41:19.991Z,2.63
2024-02-19T22:43:53.047Z,2.60
2024-02-19T22:46:24.820Z,2.60
2024-02-19T22:48:58.058Z,2.10
2024-02-19T22:51:29.996Z,2.83
2024-02-19T22:54:03.885Z,2.67
2024-02-19T22:56:35.851Z,2.13
2024-02-19T22:59:14.657Z,2.13
2024-02-19T23:01:53.206Z,2.42
2024-02-19T23:04:25.057Z,2.30
2024-02-19T23:06:56.994Z,2.33
2024-02-19T23:09:30.481Z,2.42
2024-02-19T23:12:02.360Z,2.42
2024-02-19T23:14:34.210Z,2.75
2024-02-19T23:17:06.095Z,2.30
2024-02-19T23:19:37.907Z,2.38
2024-02-19T23:22:10.710Z,2.20
2024-02-19T23:24:42.413Z,2.58
2024-02-19T23:27:14.087Z,2.05
2024-02-19T23:29:45.871Z,2.25
2024-02-19T23:32:17.602Z,2.65
2024-02-19T23:34:49.528Z,2.50
2024-02-19T23:37:24.036Z,2.25
2024-02-19T23:39:55.993Z,2.47
2024-02-19T23:42:27.809Z,2.88
2024-02-19T23:44:59.598Z,2.50
2024-02-19T23:47:31.408Z,2.60
2024-02-19T23:50:06.578Z,2.75
2024-02-19T23:52:41.031Z,2.70
2024-02-19T23:55:18.137Z,2.70
2024-02-19T23:57:50.049Z,2.60
